createdAt,value
2018-03-14T00:00:07.492Z,97.14
2018-03-14T00:01:16.708Z,96.67
2018-03-14T00:02:26.777Z,97.52
2018-03-14T00:03:36.874Z,98.47
2018-03-14T00:04:47.721Z,99.13
2018-03-14T00:05:59.204Z,99.32
2018-03-14T00:07:10.647Z,99.88
2018-03-14T00:08:23.423Z,99.88
2018-03-14T00:09:34.650Z,99.79
2018-03-14T00:10:45.183Z,99.99
2018-03-14T00:11:55.283Z,99.79
2018-03-14T00:13:05.356Z,99.99
2018-03-14T00:14:15.173Z,99.13
2018-03-14T00:15:24.677Z,99.03
2018-03-14T00:16:34.461Z,98.75
2018-03-14T00:17:44.531Z,98.94
2018-03-14T00:18:54.623Z,98.84
2018-03-14T00:20:04.415Z,98.28
2018-03-14T00:21:14.230Z,98.47
2018-03-14T00:22:24.031Z,98.18
2018-03-14T00:23:33.860Z,97.9
2018-03-14T00:24:43.936Z,98.37
2018-03-14T00:25:53.989Z,97.99
2018-03-14T00:27:03.210Z,97.9
2018-03-14T00:28:13.007Z,98.65
2018-03-14T00:29:22.659Z,98.75
2018-03-14T00:30:32.486Z,97.8
2018-03-14T00:31:42.538Z,97.99
2018-03-14T00:32:52.717Z,97.05
2018-03-14T00:34:02.235Z,96.48
2018-03-14T00:35:12.328Z,95.73
2018-03-14T00:36:22.410Z,95.45
2018-03-14T00:37:32.474Z,94.03
2018-03-14T00:38:42.000Z,94.22
2018-03-14T00:39:51.791Z,93.47
2018-03-14T00:41:01.310Z,93.18
2018-03-14T00:42:10.824Z,92.43
2018-03-14T00:43:20.876Z,92.24
2018-03-14T00:44:30.969Z,91.67
2018-03-14T00:45:41.030Z,91.77
2018-03-14T00:46:51.092Z,91.11
2018-03-14T00:48:01.173Z,91.49
2018-03-14T00:49:11.261Z,90.73
2018-03-14T00:50:21.375Z,90.83
2018-03-14T00:51:30.875Z,90.83
2018-03-14T00:52:40.706Z,90.36
2018-03-14T00:53:50.512Z,90.55
2018-03-14T00:55:00.337Z,90.07
2018-03-14T00:56:10.439Z,90.45
2018-03-14T00:57:19.946Z,90.92
2018-03-14T00:58:30.024Z,90.73
2018-03-14T00:59:39.819Z,91.49
2018-03-14T01:00:49.948Z,91.3
2018-03-14T01:01:59.989Z,91.11
2018-03-14T01:03:10.059Z,91.3
2018-03-14T01:04:19.841Z,91.39
2018-03-14T01:05:29.375Z,92.05
2018-03-14T01:06:39.184Z,91.67
2018-03-14T01:07:49.287Z,92.43
2018-03-14T01:08:59.084Z,92.43
2018-03-14T01:10:08.578Z,92.43
2018-03-14T01:11:19.241Z,93.28
2018-03-14T01:12:30.593Z,92.52
2018-03-14T01:13:41.757Z,92.43
2018-03-14T01:14:53.784Z,92.43
2018-03-14T01:16:05.910Z,91.77
2018-03-14T01:17:16.740Z,91.96
2018-03-14T01:18:26.995Z,92.14
2018-03-14T01:19:37.087Z,92.9
2018-03-14T01:20:46.599Z,92.9
2018-03-14T01:21:56.419Z,92.99
2018-03-14T01:23:06.211Z,92.14
2018-03-14T01:24:16.305Z,91.3
2018-03-14T01:25:26.400Z,91.39
2018-03-14T01:26:36.492Z,91.2
2018-03-14T01:27:46.051Z,92.43
2018-03-14T01:28:55.545Z,93.09
2018-03-14T01:30:05.336Z,92.99
2018-03-14T01:31:15.470Z,92.99
2018-03-14T01:32:25.296Z,92.33
2018-03-14T01:33:35.409Z,91.39
2018-03-14T01:34:45.176Z,90.55
2018-03-14T01:35:55.251Z,90.22
2018-03-14T01:37:05.327Z,87.29
2018-03-14T01:38:14.813Z,88.04
2018-03-14T01:39:24.581Z,89.08
2018-03-14T01:40:34.098Z,89.74
2018-03-14T01:41:43.616Z,89.93
2018-03-14T01:42:53.421Z,90.59
2018-03-14T01:44:03.212Z,90.59
2018-03-14T01:45:12.696Z,90.5
2018-03-14T01:46:22.490Z,91.44
2018-03-14T01:47:32.557Z,90.78
2018-03-14T01:48:42.640Z,92.47
2018-03-14T01:49:52.412Z,92.38
2018-03-14T01:51:02.200Z,93.51
2018-03-14T01:52:12.099Z,91.82
2018-03-14T01:53:21.601Z,90.69
2018-03-14T01:54:31.748Z,91.82
2018-03-14T01:55:41.818Z,92.38
2018-03-14T01:56:51.886Z,93.7
2018-03-14T01:58:01.935Z,93.8
2018-03-14T01:59:11.982Z,93.98
2018-03-14T02:00:21.486Z,94.27
2018-03-14T02:01:31.560Z,94.55
2018-03-14T02:02:41.658Z,94.93
2018-03-14T02:03:51.428Z,95.59
2018-03-14T02:05:01.531Z,95.21
2018-03-14T02:06:11.364Z,94.74
2018-03-14T02:07:21.198Z,95.5
2018-03-14T02:08:30.697Z,95.12
2018-03-14T02:09:40.779Z,93.98
2018-03-14T02:10:50.848Z,93.61
2018-03-14T02:12:00.365Z,92.47
2018-03-14T02:13:10.437Z,93.04
2018-03-14T02:14:20.234Z,94.31
2018-03-14T02:15:30.326Z,93.65
2018-03-14T02:16:40.443Z,93.75
2018-03-14T02:17:50.526Z,94.41
2018-03-14T02:19:00.573Z,95.64
2018-03-14T02:20:11.371Z,96.2
2018-03-14T02:21:22.111Z,96.86
2018-03-14T02:22:33.731Z,96.01
2018-03-14T02:23:45.478Z,96.86
2018-03-14T02:24:58.122Z,96.48
2018-03-14T02:26:08.018Z,95.54
2018-03-14T02:27:19.458Z,95.92
2018-03-14T02:28:29.954Z,94.98
2018-03-14T02:29:39.767Z,93.75
2018-03-14T02:30:49.861Z,94.79
2018-03-14T02:31:59.704Z,95.82
2018-03-14T02:33:09.472Z,95.26
2018-03-14T02:34:19.267Z,94.22
2018-03-14T02:35:29.044Z,93.56
2018-03-14T02:36:39.135Z,94.41
2018-03-14T02:37:48.936Z,95.07
2018-03-14T02:38:58.722Z,96.2
2018-03-14T02:40:08.551Z,97.71
2018-03-14T02:41:18.340Z,98.93
2018-03-14T02:42:28.127Z,99.02
2018-03-14T02:43:37.904Z,99.5
2018-03-14T02:44:47.668Z,99.78
2018-03-14T02:45:57.664Z,99.02
2018-03-14T02:47:07.379Z,99.12
2018-03-14T02:48:17.108Z,98.08
2018-03-14T02:49:26.833Z,98.36
2018-03-14T02:50:36.828Z,97.71
2018-03-14T02:51:46.813Z,96.86
2018-03-14T02:52:56.529Z,96.2
2018-03-14T02:54:05.980Z,95.73
2018-03-14T02:55:15.969Z,96.77
2018-03-14T02:56:25.424Z,97.24
2018-03-14T02:57:35.419Z,97.89
2018-03-14T02:58:45.137Z,96.39
2018-03-14T02:59:54.856Z,95.73
2018-03-14T03:01:04.583Z,94.69
2018-03-14T03:02:14.316Z,95.73
2018-03-14T03:03:24.301Z,96.2
2018-03-14T03:04:34.281Z,96.67
2018-03-14T03:05:44.261Z,96.67
2018-03-14T03:06:54.250Z,96.77
2018-03-14T03:08:03.966Z,97.05
2018-03-14T03:09:13.950Z,97.89
2018-03-14T03:10:23.986Z,97.33
2018-03-14T03:11:33.972Z,96.77
2018-03-14T03:12:43.743Z,96.2
2018-03-14T03:13:53.924Z,96.2
2018-03-14T03:15:03.911Z,96.11
2018-03-14T03:16:13.908Z,95.82
2018-03-14T03:17:23.899Z,96.3
2018-03-14T03:18:33.878Z,96.86
2018-03-14T03:19:43.336Z,96.77
2018-03-14T03:20:53.330Z,96.95
2018-03-14T03:22:03.314Z,96.95
2018-03-14T03:23:13.035Z,97.52
2018-03-14T03:24:22.222Z,98.65
2018-03-14T03:25:32.211Z,98.08
2018-03-14T03:26:41.934Z,98.55
2018-03-14T03:27:51.649Z,99.4
2018-03-14T03:29:01.374Z,99.99
2018-03-14T03:30:11.362Z,99.99
2018-03-14T03:31:21.094Z,99.99
2018-03-14T03:32:31.108Z,99.5
2018-03-14T03:33:40.824Z,98.36
2018-03-14T03:34:50.543Z,98.74
2018-03-14T03:36:00.262Z,98.51
2018-03-14T03:37:09.990Z,97.66
2018-03-14T03:38:19.710Z,97.66
2018-03-14T03:39:29.707Z,96.62
2018-03-14T03:40:39.425Z,96.25
2018-03-14T03:41:49.143Z,96.15
2018-03-14T03:42:59.134Z,95.87
2018-03-14T03:44:08.859Z,95.5
2018-03-14T03:45:18.842Z,95.87
2018-03-14T03:46:28.828Z,95.68
2018-03-14T03:47:38.815Z,95.31
2018-03-14T03:48:48.534Z,95.12
2018-03-14T03:49:58.518Z,94.83
2018-03-14T03:51:07.982Z,94.27
2018-03-14T03:52:17.963Z,95.12
2018-03-14T03:53:27.950Z,94.46
2018-03-14T03:54:37.986Z,93.32
2018-03-14T03:55:47.708Z,93.42
2018-03-14T03:56:57.724Z,93.23
2018-03-14T03:58:06.913Z,92
2018-03-14T03:59:16.901Z,90.88
2018-03-14T04:03:24.828Z,93.28
2018-03-14T04:04:34.279Z,93.56
2018-03-14T04:05:44.274Z,94.46
2018-03-14T04:06:53.993Z,94.31
2018-03-14T04:08:03.447Z,93.65
2018-03-14T04:09:13.489Z,94.03
2018-03-14T04:10:23.212Z,93.84
2018-03-14T04:11:33.220Z,93.84
2018-03-14T04:12:43.204Z,93.47
2018-03-14T04:13:53.191Z,93.37
2018-03-14T04:15:03.283Z,94.79
2018-03-14T04:16:12.737Z,94.5
2018-03-14T04:17:22.194Z,94.5
2018-03-14T04:18:31.908Z,94.5
2018-03-14T04:19:41.893Z,94.69
2018-03-14T04:20:51.612Z,94.98
2018-03-14T04:22:01.336Z,95.16
2018-03-14T04:23:10.785Z,95.73
2018-03-14T04:24:20.776Z,96.48
2018-03-14T04:25:30.762Z,95.64
2018-03-14T04:26:40.483Z,95.35
2018-03-14T04:27:50.208Z,95.64
2018-03-14T04:28:59.928Z,95.73
2018-03-14T04:30:09.909Z,95.35
2018-03-14T04:31:19.893Z,95.07
2018-03-14T04:32:29.612Z,95.07
2018-03-14T04:33:39.593Z,95.26
2018-03-14T04:34:49.318Z,94.88
2018-03-14T04:35:59.306Z,94.79
2018-03-14T04:37:09.026Z,95.73
2018-03-14T04:38:18.744Z,95.16
2018-03-14T04:39:28.474Z,95.92
2018-03-14T04:40:38.461Z,96.11
2018-03-14T04:41:48.445Z,96.67
2018-03-14T04:42:58.442Z,95.5
2018-03-14T04:44:07.895Z,94.93
2018-03-14T04:45:17.616Z,94.93
2018-03-14T04:46:27.350Z,95.4
2018-03-14T04:47:37.072Z,95.12
2018-03-14T04:48:47.064Z,95.31
2018-03-14T04:49:57.048Z,95.21
2018-03-14T04:51:06.504Z,94.83
2018-03-14T04:52:16.241Z,94.93
2018-03-14T04:53:26.230Z,94.27
2018-03-14T04:54:36.285Z,93.61
2018-03-14T04:55:46.269Z,93.7
2018-03-14T04:56:56.259Z,93.13
2018-03-14T04:58:05.709Z,92.76
2018-03-14T04:59:15.431Z,93.13
2018-03-14T05:00:25.420Z,92.47
2018-03-14T05:01:35.414Z,92.38
2018-03-14T05:02:45.138Z,92.76
2018-03-14T05:03:55.137Z,92.95
2018-03-14T05:05:05.123Z,91.63
2018-03-14T05:06:15.117Z,91.63
2018-03-14T05:07:25.277Z,92
2018-03-14T05:08:35.306Z,91.25
2018-03-14T05:09:45.297Z,90.69
2018-03-14T05:10:55.285Z,90.69
2018-03-14T05:12:05.290Z,90.31
2018-03-14T05:13:15.288Z,90.12
2018-03-14T05:14:25.280Z,90.69
2018-03-14T05:15:35.270Z,91.25
2018-03-14T05:16:44.990Z,90.78
2018-03-14T05:17:54.970Z,90.69
2018-03-14T05:19:04.158Z,90.31
2018-03-14T05:20:14.147Z,90.5
2018-03-14T05:21:23.876Z,91.2
2018-03-14T05:22:33.909Z,92.19
2018-03-14T05:23:43.627Z,92.76
2018-03-14T05:24:53.347Z,93.42
2018-03-14T05:26:03.074Z,92.76
2018-03-14T05:27:13.062Z,92.47
2018-03-14T05:28:23.056Z,92.9
2018-03-14T05:29:33.045Z,93.09
2018-03-14T05:30:43.028Z,93.84
2018-03-14T05:31:53.052Z,94.31
2018-03-14T05:33:02.770Z,94.79
2018-03-14T05:34:12.760Z,94.31
2018-03-14T05:35:22.755Z,93.65
2018-03-14T05:36:32.743Z,92.9
2018-03-14T05:37:42.729Z,92.71
2018-03-14T05:38:52.769Z,94.13
2018-03-14T05:40:02.506Z,94.31
2018-03-14T05:41:11.953Z,94.88
2018-03-14T05:42:21.674Z,93.75
2018-03-14T05:43:31.660Z,92.33
2018-03-14T05:44:41.645Z,93.09
2018-03-14T05:45:51.369Z,93.75
2018-03-14T05:47:01.364Z,93.28
2018-03-14T05:48:11.356Z,93.18
2018-03-14T05:49:21.345Z,93.47
2018-03-14T05:50:31.072Z,94.22
2018-03-14T05:51:40.257Z,95.07
2018-03-14T05:52:50.242Z,94.88
2018-03-14T05:54:00.281Z,95.64
2018-03-14T05:55:10.003Z,96.01
2018-03-14T05:56:19.725Z,96.01
2018-03-14T05:57:29.446Z,96.67
2018-03-14T05:58:39.161Z,96.77
2018-03-14T05:59:48.886Z,96.95
2018-03-14T06:00:58.877Z,96.95
2018-03-14T06:02:08.870Z,96.58
2018-03-14T06:03:18.855Z,96.67
2018-03-14T06:04:28.851Z,96.39
2018-03-14T06:05:38.300Z,96.67
2018-03-14T06:06:48.287Z,95.82
2018-03-14T06:07:58.029Z,96.2
2018-03-14T06:09:08.013Z,96.01
2018-03-14T06:10:18.005Z,96.2
2018-03-14T06:11:27.721Z,96.39
2018-03-14T06:12:37.712Z,95.64
2018-03-14T06:13:47.431Z,95.45
2018-03-14T06:14:57.202Z,96.2
2018-03-14T06:16:06.664Z,95.64
2018-03-14T06:17:16.116Z,95.54
2018-03-14T06:18:26.103Z,95.07
2018-03-14T06:19:35.828Z,95.26
2018-03-14T06:20:45.280Z,94.69
2018-03-14T06:21:55.270Z,95.26
2018-03-14T06:23:04.993Z,95.07
2018-03-14T06:24:15.001Z,94.69
2018-03-14T06:25:24.721Z,95.26
2018-03-14T06:26:34.713Z,95.07
2018-03-14T06:27:44.433Z,94.5
2018-03-14T06:28:54.411Z,94.79
2018-03-14T06:30:04.636Z,94.5
2018-03-14T06:31:14.636Z,94.5
2018-03-14T06:32:24.349Z,94.5
2018-03-14T06:33:34.345Z,94.69
2018-03-14T06:34:43.527Z,94.6
2018-03-14T06:35:52.976Z,94.5
2018-03-14T06:37:02.959Z,94.88
2018-03-14T06:38:12.760Z,94.98
2018-03-14T06:39:22.213Z,94.88
2018-03-14T06:40:31.664Z,94.31
2018-03-14T06:41:41.648Z,93.09
2018-03-14T06:42:51.369Z,93.28
2018-03-14T06:44:01.092Z,93.47
2018-03-14T06:45:10.546Z,93.47
2018-03-14T06:46:20.541Z,92.62
2018-03-14T06:47:30.272Z,92.24
2018-03-14T06:48:40.254Z,92.33
2018-03-14T06:49:50.240Z,93.09
2018-03-14T06:51:00.256Z,93.09
2018-03-14T06:52:10.064Z,92.9
2018-03-14T06:53:20.055Z,92.8
2018-03-14T06:54:30.042Z,92.43
2018-03-14T06:55:40.019Z,92.52
2018-03-14T06:56:50.050Z,92.71
2018-03-14T06:58:00.042Z,92.8
2018-03-14T06:59:09.762Z,92.62
2018-03-14T07:00:19.749Z,92.52
2018-03-14T07:01:29.736Z,93.09
2018-03-14T07:02:39.452Z,92.62
2018-03-14T07:03:49.280Z,92.14
2018-03-14T07:04:59.001Z,92.19
2018-03-14T07:06:08.187Z,92.38
2018-03-14T07:07:17.909Z,92.1
2018-03-14T07:08:27.895Z,92.38
2018-03-14T07:09:37.883Z,92.47
2018-03-14T07:10:47.602Z,92.19
2018-03-14T07:11:57.126Z,92
2018-03-14T07:13:07.138Z,92.1
2018-03-14T07:14:17.139Z,90.31
2018-03-14T07:15:26.861Z,89.93
2018-03-14T07:16:36.575Z,90.5
2018-03-14T07:17:46.570Z,90.5
2018-03-14T07:18:56.569Z,90.31
2018-03-14T07:20:06.287Z,90.88
2018-03-14T07:21:16.276Z,90.88
2018-03-14T07:22:26.265Z,90.78
2018-03-14T07:23:36.255Z,90.5
2018-03-14T07:24:46.245Z,90.03
2018-03-14T07:25:55.703Z,89.18
2018-03-14T07:27:05.691Z,88.52
2018-03-14T07:28:15.411Z,88.23
2018-03-14T07:29:25.407Z,87.95
2018-03-14T07:30:35.131Z,87.29
2018-03-14T07:31:45.123Z,86.54
2018-03-14T07:32:55.110Z,87.29
2018-03-14T07:34:05.137Z,86.91
2018-03-14T07:35:14.861Z,86.72
2018-03-14T07:36:24.909Z,86.63
2018-03-14T07:37:34.986Z,86.63
2018-03-14T07:38:44.713Z,86.35
2018-03-14T07:39:54.443Z,86.91
2018-03-14T07:41:03.912Z,87.67
2018-03-14T07:42:13.406Z,88.8
2018-03-14T07:43:23.134Z,89.93
2018-03-14T07:44:33.221Z,90.03
2018-03-14T07:45:43.315Z,90.59
2018-03-14T07:46:53.031Z,90.12
2018-03-14T07:48:03.020Z,89.74
2018-03-14T07:49:13.006Z,89.46
2018-03-14T07:50:22.998Z,89.08
2018-03-14T07:51:32.990Z,89.46
2018-03-14T07:52:43.125Z,89.37
2018-03-14T07:53:53.129Z,89.27
2018-03-14T07:55:02.585Z,88.8
2018-03-14T07:56:12.622Z,89.08
2018-03-14T07:57:22.347Z,89.08
2018-03-14T07:58:32.332Z,89.08
2018-03-14T07:59:42.320Z,89.08
2018-03-14T08:00:52.314Z,89.65
2018-03-14T08:02:02.309Z,89.56
2018-03-14T08:03:12.037Z,89.18
2018-03-14T08:04:21.764Z,89.13
2018-03-14T08:05:31.492Z,88.56
2018-03-14T08:06:41.211Z,88.28
2018-03-14T08:07:51.225Z,88.37
2018-03-14T08:09:01.216Z,88.56
2018-03-14T08:10:10.941Z,87.71
2018-03-14T08:11:20.931Z,87.34
2018-03-14T08:12:30.938Z,87.71
2018-03-14T08:13:41.075Z,87.52
2018-03-14T08:14:52.092Z,87.24
2018-03-14T08:16:02.085Z,87.24
2018-03-14T08:17:11.013Z,87.05
2018-03-14T08:18:21.007Z,87.24
2018-03-14T08:19:30.729Z,87.05
2018-03-14T08:20:40.715Z,85.92
2018-03-14T08:21:50.168Z,86.11
2018-03-14T08:23:00.167Z,86.11
2018-03-14T08:24:10.161Z,85.54
2018-03-14T08:25:19.888Z,85.64
2018-03-14T08:26:29.617Z,85.21
2018-03-14T08:27:39.614Z,85.4
2018-03-14T08:28:49.724Z,85.4
2018-03-14T08:29:59.450Z,84.45
2018-03-14T08:31:08.907Z,85.3
2018-03-14T08:32:18.899Z,84.17
2018-03-14T08:33:28.886Z,84.45
2018-03-14T08:34:38.876Z,84.27
2018-03-14T08:35:48.871Z,83.98
2018-03-14T08:36:59.216Z,84.45
2018-03-14T08:38:09.212Z,84.17
2018-03-14T08:39:19.213Z,84.64
2018-03-14T08:40:29.202Z,84.36
2018-03-14T08:41:38.685Z,82.95
2018-03-14T08:42:48.675Z,82.38
2018-03-14T08:43:58.666Z,82.1
2018-03-14T08:45:08.130Z,80.87
2018-03-14T08:46:18.143Z,81.24
2018-03-14T08:47:27.876Z,81.81
2018-03-14T08:48:37.610Z,81.81
2018-03-14T08:49:47.342Z,82
2018-03-14T08:50:57.067Z,81.72
2018-03-14T08:52:06.526Z,81.91
2018-03-14T08:53:16.522Z,81.72
2018-03-14T08:54:26.591Z,81.62
2018-03-14T08:55:36.590Z,80.87
2018-03-14T08:56:46.398Z,80.11
2018-03-14T08:57:56.416Z,80.02
2018-03-14T08:59:05.874Z,79.64
2018-03-14T09:00:15.869Z,80.02
2018-03-14T09:01:25.868Z,79.4
2018-03-14T09:02:35.594Z,79.36
2018-03-14T09:03:45.328Z,79.21
2018-03-14T09:04:55.052Z,79.02
2018-03-14T09:06:05.186Z,78.92
2018-03-14T09:07:14.916Z,79.02
2018-03-14T09:08:24.973Z,78.17
2018-03-14T09:09:34.433Z,77.89
2018-03-14T09:10:44.535Z,77.51
2018-03-14T09:11:54.608Z,77.32
2018-03-14T09:13:04.615Z,77.61
2018-03-14T09:14:14.344Z,77.61
2018-03-14T09:15:24.351Z,77.13
2018-03-14T09:16:34.350Z,77.04
2018-03-14T09:17:44.078Z,76.57
2018-03-14T09:18:54.073Z,76
2018-03-14T09:20:04.072Z,76
2018-03-14T09:21:13.803Z,75.81
2018-03-14T09:22:23.858Z,76.09
2018-03-14T09:23:33.859Z,75.53
2018-03-14T09:24:43.615Z,75.62
2018-03-14T09:25:53.340Z,75.71
2018-03-14T09:27:03.335Z,76.15
2018-03-14T09:28:12.529Z,76.19
2018-03-14T09:29:22.521Z,76.06
2018-03-14T09:30:32.527Z,76.25
2018-03-14T09:31:42.537Z,76.34
2018-03-14T09:32:52.775Z,76.72
2018-03-14T09:34:02.781Z,76.81
2018-03-14T09:35:12.516Z,77.19
2018-03-14T09:36:22.249Z,77.28
2018-03-14T09:37:32.249Z,77.28
2018-03-14T09:38:41.979Z,77.37
2018-03-14T09:39:51.984Z,77.75
2018-03-14T09:41:01.976Z,77.66
2018-03-14T09:42:11.702Z,77.56
2018-03-14T09:43:21.744Z,77.47
2018-03-14T09:44:31.479Z,77.47
2018-03-14T09:45:41.474Z,77.47
2018-03-14T09:46:51.251Z,77.47
2018-03-14T09:48:01.244Z,77.28
2018-03-14T09:49:10.704Z,77.47
2018-03-14T09:50:20.704Z,77.47
2018-03-14T09:51:30.730Z,77.09
2018-03-14T09:52:40.458Z,76.25
2018-03-14T09:53:49.917Z,76.34
2018-03-14T09:54:59.645Z,76.81
2018-03-14T09:56:09.649Z,76.34
2018-03-14T09:57:19.381Z,76.72
2018-03-14T09:58:29.230Z,76.53
2018-03-14T09:59:39.222Z,76.53
2018-03-14T10:00:49.269Z,76.43
2018-03-14T10:01:59.068Z,76.62
2018-03-14T10:03:09.142Z,76.28
2018-03-14T10:04:18.701Z,76.66
2018-03-14T10:05:28.699Z,76.38
2018-03-14T10:06:38.428Z,75.71
2018-03-14T10:07:48.430Z,75.53
2018-03-14T10:08:58.426Z,75.62
2018-03-14T10:10:08.477Z,75.53
2018-03-14T10:11:18.502Z,75.53
2018-03-14T10:12:28.503Z,75.43
2018-03-14T10:13:38.230Z,75.15
2018-03-14T10:14:48.224Z,74.96
2018-03-14T10:15:58.269Z,74.77
2018-03-14T10:17:08.006Z,74.71
2018-03-14T10:18:17.475Z,74.05
2018-03-14T10:19:26.934Z,73.96
2018-03-14T10:20:36.669Z,73.21
2018-03-14T10:21:46.661Z,72.36
2018-03-14T10:22:56.831Z,72.73
2018-03-14T10:24:06.833Z,72.55
2018-03-14T10:25:16.566Z,72.64
2018-03-14T10:26:26.567Z,71.41
2018-03-14T10:27:36.298Z,71.5
2018-03-14T10:28:46.304Z,71.6
2018-03-14T10:29:55.762Z,71.41
2018-03-14T10:31:05.768Z,71.22
2018-03-14T10:32:15.774Z,70.47
2018-03-14T10:33:25.772Z,70.75
2018-03-14T10:34:35.504Z,70.37
2018-03-14T10:35:45.241Z,70.09
2018-03-14T10:36:54.969Z,70
2018-03-14T10:38:04.698Z,70.09
2018-03-14T10:39:14.705Z,70.09
2018-03-14T10:40:24.167Z,69.9
2018-03-14T10:41:34.174Z,69.9
2018-03-14T10:42:44.178Z,69.9
2018-03-14T10:43:53.910Z,69.71
2018-03-14T10:45:03.916Z,70.28
2018-03-14T10:46:13.674Z,70.37
2018-03-14T10:47:23.673Z,70.18
2018-03-14T10:48:33.670Z,70.47
2018-03-14T10:49:43.663Z,69.62
2018-03-14T10:50:53.389Z,69.81
2018-03-14T10:52:03.122Z,70.28
2018-03-14T10:53:12.857Z,70.18
2018-03-14T10:54:22.583Z,70.28
2018-03-14T10:55:32.310Z,70.09
2018-03-14T10:56:42.046Z,70.47
2018-03-14T10:57:52.061Z,70.28
2018-03-14T10:59:02.065Z,70.37
2018-03-14T11:00:11.892Z,70.47
2018-03-14T11:01:21.622Z,70.28
2018-03-14T11:02:31.618Z,69.62
2018-03-14T11:03:41.355Z,69.9
2018-03-14T11:04:51.363Z,69.05
2018-03-14T11:06:01.363Z,69.14
2018-03-14T11:07:10.837Z,69.33
2018-03-14T11:08:20.838Z,69.14
2018-03-14T11:09:30.568Z,68.86
2018-03-14T11:10:40.565Z,68.9
2018-03-14T11:11:50.302Z,69.18
2018-03-14T11:13:00.300Z,68.9
2018-03-14T11:14:09.761Z,68.74
2018-03-14T11:15:19.752Z,68.08
2018-03-14T11:16:29.479Z,68.12
2018-03-14T11:17:39.476Z,67.26
2018-03-14T11:18:49.479Z,66.6
2018-03-14T11:19:59.217Z,65.94
2018-03-14T11:21:08.960Z,66.06
2018-03-14T11:22:18.960Z,64.83
2018-03-14T11:23:29.009Z,63.51
2018-03-14T11:24:39.012Z,63.51
2018-03-14T11:25:49.021Z,63.7
2018-03-14T11:26:58.764Z,63.35
2018-03-14T11:28:08.584Z,63.64
2018-03-14T11:29:18.660Z,63.82
2018-03-14T11:30:28.406Z,63.39
2018-03-14T11:31:38.518Z,63.2
2018-03-14T11:32:48.578Z,62.53
2018-03-14T11:33:58.316Z,61.33
2018-03-14T11:35:08.323Z,61.24
2018-03-14T11:36:18.328Z,61.43
2018-03-14T11:37:28.341Z,60.22
2018-03-14T11:38:38.357Z,60.22
2018-03-14T11:39:48.367Z,59.68
2018-03-14T11:40:58.377Z,58.17
2018-03-14T11:42:08.117Z,57.12
2018-03-14T11:43:18.127Z,56.55
2018-03-14T11:44:27.933Z,56.29
2018-03-14T11:45:37.747Z,56.1
2018-03-14T11:46:47.769Z,55.63
2018-03-14T11:47:57.824Z,55.91
2018-03-14T11:49:07.568Z,55.09
2018-03-14T11:50:17.052Z,53.95
2018-03-14T11:51:27.062Z,54.14
2018-03-14T11:52:37.073Z,55.09
2018-03-14T11:53:47.091Z,54.43
2018-03-14T11:54:56.850Z,53.97
2018-03-14T11:56:06.917Z,52.84
2018-03-14T11:57:16.955Z,52.55
2018-03-14T11:58:27.127Z,52.01
2018-03-14T11:59:37.137Z,50.2
2018-03-14T12:00:47.205Z,53.34
2018-03-14T12:01:57.214Z,55.93
2018-03-14T12:03:07.228Z,55.2
2018-03-14T12:04:16.969Z,55.32
2018-03-14T12:05:27.006Z,55.83
2018-03-14T12:06:37.029Z,55.19
2018-03-14T12:07:47.042Z,54.43
2018-03-14T12:08:56.794Z,52.92
2018-03-14T12:10:06.635Z,53.5
2018-03-14T12:11:16.600Z,51.71
2018-03-14T12:12:26.676Z,48.75
2018-03-14T12:13:36.692Z,46.37
2018-03-14T12:14:46.696Z,45.87
2018-03-14T12:15:56.447Z,46.54
2018-03-14T12:17:06.189Z,46.34
2018-03-14T12:18:16.211Z,48.44
2018-03-14T12:19:25.980Z,44.63
2018-03-14T12:20:35.736Z,45.29
2018-03-14T12:21:45.482Z,44.92
2018-03-14T12:22:55.495Z,45.39
2018-03-14T12:24:05.508Z,44.15
2018-03-14T12:25:15.527Z,43.39
2018-03-14T12:26:25.273Z,43.96
2018-03-14T12:27:35.288Z,43.49
2018-03-14T12:28:45.306Z,43.39
2018-03-14T12:29:55.385Z,44.34
2018-03-14T12:31:04.922Z,43.79
2018-03-14T12:32:14.413Z,45.42
2018-03-14T12:33:24.173Z,47.82
2018-03-14T12:34:34.342Z,48.04
2018-03-14T12:35:43.883Z,48.16
2018-03-14T12:36:53.628Z,48.18
2018-03-14T12:38:03.727Z,48.02
2018-03-14T12:39:13.744Z,46.61
2018-03-14T12:40:23.757Z,42.99
2018-03-14T12:41:33.773Z,42.11
2018-03-14T12:42:43.524Z,40.86
2018-03-14T12:43:53.016Z,41.51
2018-03-14T12:45:03.093Z,43.04
2018-03-14T12:46:12.872Z,45.55
2018-03-14T12:47:22.996Z,44.81
2018-03-14T12:48:33.019Z,40.41
2018-03-14T12:49:43.042Z,38.76
2018-03-14T12:50:53.064Z,39.6
2018-03-14T12:52:02.834Z,40.55
2018-03-14T12:53:12.584Z,41.03
2018-03-14T12:54:22.068Z,41.22
2018-03-14T12:55:31.554Z,39.67
2018-03-14T12:56:41.309Z,39.37
2018-03-14T12:57:50.794Z,40.2
2018-03-14T12:59:00.816Z,41.26
2018-03-14T13:00:10.839Z,40.3
2018-03-14T13:01:20.589Z,40.3
2018-03-14T13:02:30.125Z,41.43
2018-03-14T13:03:40.149Z,40.28
2018-03-14T13:04:50.262Z,40.19
2018-03-14T13:06:00.017Z,40.17
2018-03-14T13:07:09.771Z,41.12
2018-03-14T13:08:19.521Z,41.31
2018-03-14T13:09:29.268Z,40.83
2018-03-14T13:10:39.283Z,40.83
2018-03-14T13:11:48.802Z,40.36
2018-03-14T13:12:58.554Z,41
2018-03-14T13:14:07.770Z,40.26
2018-03-14T13:15:17.788Z,40.63
2018-03-14T13:16:27.811Z,40.15
2018-03-14T13:17:37.831Z,40.12
2018-03-14T13:18:47.578Z,41.46
2018-03-14T13:19:57.058Z,41.46
2018-03-14T13:21:06.277Z,41.27
2018-03-14T13:22:15.845Z,41.82
2018-03-14T13:23:25.596Z,42.2
2018-03-14T13:24:35.340Z,42.85
2018-03-14T13:25:45.091Z,43.23
2018-03-14T13:26:55.107Z,42.08
2018-03-14T13:28:04.857Z,41.88
2018-03-14T13:29:14.880Z,42.83
2018-03-14T13:30:24.637Z,42.64
2018-03-14T13:31:34.659Z,42.24
2018-03-14T13:32:44.408Z,42.79
2018-03-14T13:33:54.222Z,42.69
2018-03-14T13:35:04.245Z,43.71
2018-03-14T13:36:14.256Z,44.38
2018-03-14T13:37:24.270Z,43.05
2018-03-14T13:38:34.283Z,43.52
2018-03-14T13:39:44.303Z,44.73
2018-03-14T13:40:54.392Z,45.31
2018-03-14T13:42:04.088Z,45.4
2018-03-14T13:43:14.203Z,45.78
2018-03-14T13:44:24.227Z,46.45
2018-03-14T13:45:34.251Z,46.61
2018-03-14T13:46:44.268Z,47.39
2018-03-14T13:47:54.274Z,47.87
2018-03-14T13:49:04.280Z,48.06
2018-03-14T13:50:14.288Z,47.87
2018-03-14T13:51:24.078Z,47.97
2018-03-14T13:52:34.083Z,48.06
2018-03-14T13:53:44.091Z,47.77
2018-03-14T13:54:54.096Z,48.06
2018-03-14T13:56:04.114Z,48.22
2018-03-14T13:57:14.128Z,49.01
2018-03-14T13:58:24.176Z,49.01
2018-03-14T13:59:34.235Z,49.77
2018-03-14T14:00:44.241Z,48.63
2018-03-14T14:01:53.716Z,49.2
2018-03-14T14:03:03.731Z,49.58
2018-03-14T14:04:13.741Z,48.63
2018-03-14T14:05:23.754Z,48.72
2018-03-14T14:06:33.759Z,49.77
2018-03-14T14:07:43.845Z,49.87
2018-03-14T14:08:53.657Z,49.58
2018-03-14T14:10:03.712Z,49.01
2018-03-14T14:11:12.927Z,49.1
2018-03-14T14:12:22.402Z,50.24
2018-03-14T14:13:32.409Z,49.77
2018-03-14T14:14:42.257Z,49.39
2018-03-14T14:15:52.023Z,50.53
2018-03-14T14:17:02.126Z,50.34
2018-03-14T14:18:11.876Z,49.87
2018-03-14T14:19:21.986Z,50.24
2018-03-14T14:20:31.459Z,50.81
2018-03-14T14:21:40.938Z,49.96
2018-03-14T14:22:50.704Z,49.58
2018-03-14T14:24:00.704Z,48.8
2018-03-14T14:25:10.720Z,48.99
2018-03-14T14:26:20.728Z,49.84
2018-03-14T14:27:30.463Z,50.12
2018-03-14T14:28:40.199Z,50.22
2018-03-14T14:29:49.714Z,50.31
2018-03-14T14:30:59.203Z,50.98
2018-03-14T14:32:08.403Z,51.17
2018-03-14T14:33:18.238Z,51.45
2018-03-14T14:34:27.987Z,51.17
2018-03-14T14:35:38.091Z,51.45
2018-03-14T14:36:47.831Z,51.17
2018-03-14T14:37:57.302Z,51.39
2018-03-14T14:39:07.313Z,50.24
2018-03-14T14:40:17.053Z,51.39
2018-03-14T14:41:27.179Z,51.95
2018-03-14T14:42:37.119Z,51.41
2018-03-14T14:43:46.854Z,51.41
2018-03-14T14:44:56.592Z,50.74
2018-03-14T14:46:06.058Z,51.51
2018-03-14T14:47:16.077Z,50.84
2018-03-14T14:48:25.824Z,51.43
2018-03-14T14:49:35.560Z,50.87
2018-03-14T14:50:45.574Z,50.77
2018-03-14T14:51:55.312Z,51.15
2018-03-14T14:53:05.341Z,50.42
2018-03-14T14:54:15.351Z,50.32
2018-03-14T14:55:25.088Z,50.23
2018-03-14T14:56:35.099Z,50.2
2018-03-14T14:57:45.102Z,50.2
2018-03-14T14:58:55.110Z,50.2
2018-03-14T15:00:04.578Z,50.29
2018-03-14T15:01:14.588Z,50.29
2018-03-14T15:02:24.596Z,50.2
2018-03-14T15:03:34.610Z,50.56
2018-03-14T15:04:44.629Z,50.27
2018-03-14T15:05:54.639Z,50.27
2018-03-14T15:07:04.402Z,49.7